Elberfeld, Indiana
Current Conditions -  °F | °C
As of 1:54 AM on Sunday 23 Nov 2014 (Local Time) from KEVV Reporting Station
Scattered Clouds Scattered Clouds  
Wind Chill: 50°   Ceiling: Unl
Heat Index: 50°   Visibility: 10mi
Dew Point: 38°   Wind: 6mph
Humidity: 63%   Direction: 140°SE
Pressure: 29.96"   Gusts: NA
Location:  38.16°N, 87.45°W
Report Text: KEVV 230754Z AUTO 14005KT 10SM SCT038 10/03 A2996 RMK AO2 SLP146 T01000033
Loading
Personal Weather Stations






























Interactive Weather Map New forecast layout! Learn more

10-Day Weather Forecast

Advertisements
Track Severe Weather on mobile